Arcoverde, Brazil
Current Conditions -  °F | °C
As of 8:00 AM on Friday 24 Oct 2014 (Local Time) from SBKG Reporting Station
Broken Clouds Broken Clouds  
Wind Chill: 73°   Ceiling: 2500
Heat Index: 73°   Visibility: 6mi
Dew Point: 68°   Wind: 9mph
Humidity: 83%   Direction: 130°SE
Pressure: 30.03"   Gusts: NA
Location:  8.42°S, 37.05°W
Report Text: SBKG 241100Z 13008KT 9999 SCT018 BKN025 23/20 Q1017
Loading
Personal Weather Stations






























Interactive Weather Map
Tropical Storm Tracking
New forecast layout! Learn more

10-Day Weather Forecast

Advertisements
Track Severe Weather on mobile